sensor_id;sensor_type;location;lat;lon;timestamp;pressure;altitude;pressure_sealevel;temperature;humidity
26489;BME280;14169;43.684;10.484;2023-03-01T00:01:39;101437.53;;;9.38;100.00
26489;BME280;14169;43.684;10.484;2023-03-01T00:04:05;101425.47;;;9.33;100.00
26489;BME280;14169;43.684;10.484;2023-03-01T00:06:31;101424.72;;;9.26;100.00
26489;BME280;14169;43.684;10.484;2023-03-01T00:08:57;101423.06;;;9.20;100.00
26489;BME280;14169;43.684;10.484;2023-03-01T00:11:26;101426.53;;;9.21;100.00
26489;BME280;14169;43.684;10.484;2023-03-01T00:13:54;101418.81;;;9.15;100.00
26489;BME280;14169;43.684;10.484;2023-03-01T00:16:27;101422.31;;;9.14;100.00
26489;BME280;14169;43.684;10.484;2023-03-01T00:18:57;101427.53;;;9.14;100.00
26489;BME280;14169;43.684;10.484;2023-03-01T00:21:24;101428.41;;;9.11;100.00
26489;BME280;14169;43.684;10.484;2023-03-01T00:23:50;101420.75;;;9.04;100.00
26489;BME280;14169;43.684;10.484;2023-03-01T00:26:17;101424.25;;;8.97;100.00
26489;BME280;14169;43.684;10.484;2023-03-01T00:28:43;101421.81;;;8.86;100.00
26489;BME280;14169;43.684;10.484;2023-03-01T00:31:12;101423.66;;;8.78;100.00
26489;BME280;14169;43.684;10.484;2023-03-01T00:33:38;101430.69;;;8.72;100.00
26489;BME280;14169;43.684;10.484;2023-03-01T00:36:05;101417.81;;;8.63;100.00
26489;BME280;14169;43.684;10.484;2023-03-01T00:38:44;101426.59;;;8.54;100.00
26489;BME280;14169;43.684;10.484;2023-03-01T00:41:12;101423.16;;;8.51;100.00
26489;BME280;14169;43.684;10.484;2023-03-01T00:43:38;101425.84;;;8.43;100.00
26489;BME280;14169;43.684;10.484;2023-03-01T00:46:05;101429.34;;;8.40;100.00
26489;BME280;14169;43.684;10.484;2023-03-01T00:48:32;101428.56;;;8.32;100.00
26489;BME280;14169;43.684;10.484;2023-03-01T00:53:39;101413.13;;;8.23;100.00
26489;BME280;14169;43.684;10.484;2023-03-01T00:56:06;101418.31;;;8.20;100.00
26489;BME280;14169;43.684;10.484;2023-03-01T00:58:32;101424.41;;;8.19;100.00
26489;BME280;14169;43.684;10.484;2023-03-01T01:00:59;101410.53;;;8.20;100.00
26489;BME280;14169;43.684;10.484;2023-03-01T01:03:25;101415.72;;;8.23;100.00
26489;BME280;14169;43.684;10.484;2023-03-01T01:05:51;101422.56;;;8.29;100.00
26489;BME280;14169;43.684;10.484;2023-03-01T01:08:18;101415.66;;;8.26;100.00
26489;BME280;14169;43.684;10.484;2023-03-01T01:10:44;101406.97;;;8.29;100.00
26489;BME280;14169;43.684;10.484;2023-03-01T01:13:11;101396.56;;;8.33;100.00
26489;BME280;14169;43.684;10.484;2023-03-01T01:15:37;101403.47;;;8.33;100.00
26489;BME280;14169;43.684;10.484;2023-03-01T01:18:02;101406.97;;;8.29;100.00
26489;BME280;14169;43.684;10.484;2023-03-01T01:20:28;101406.13;;;8.27;100.00
26489;BME280;14169;43.684;10.484;2023-03-01T01:22:53;101399.25;;;8.24;100.00
26489;BME280;14169;43.684;10.484;2023-03-01T01:25:19;101406.13;;;8.27;100.00
26489;BME280;14169;43.684;10.484;2023-03-01T01:27:45;101399.25;;;8.23;100.00
26489;BME280;14169;43.684;10.484;2023-03-01T01:30:11;101401.97;;;8.15;100.00
26489;BME280;14169;43.684;10.484;2023-03-01T01:32:36;101410.59;;;8.14;100.00
26489;BME280;14169;43.684;10.484;2023-03-01T01:35:02;101402.88;;;8.11;100.00
26489;BME280;14169;43.684;10.484;2023-03-01T01:37:27;101393.38;;;8.09;100.00
26489;BME280;14169;43.684;10.484;2023-03-01T01:40:00;101387.31;;;8.08;100.00
26489;BME280;14169;43.684;10.484;2023-03-01T01:42:26;101389.13;;;8.03;100.00
26489;BME280;14169;43.684;10.484;2023-03-01T01:47:58;101348.47;;;8.02;100.00
26489;BME280;14169;43.684;10.484;2023-03-01T01:50:26;101356.09;;;8.14;100.00
26489;BME280;14169;43.684;10.484;2023-03-01T01:52:53;101354.28;;;8.22;100.00
26489;BME280;14169;43.684;10.484;2023-03-01T01:55:22;101351.63;;;8.30;100.00
26489;BME280;14169;43.684;10.484;2023-03-01T01:57:57;101359.31;;;8.36;100.00
26489;BME280;14169;43.684;10.484;2023-03-01T02:00:26;101346.25;;;8.40;100.00
26489;BME280;14169;43.684;10.484;2023-03-01T02:02:57;101329.84;;;8.40;100.00
26489;BME280;14169;43.684;10.484;2023-03-01T02:07:58;101333.13;;;8.51;100.00
26489;BME280;14169;43.684;10.484;2023-03-01T02:10:23;101340.91;;;8.54;100.00
26489;BME280;14169;43.684;10.484;2023-03-01T02:12:50;101328.84;;;8.50;100.00
26489;BME280;14169;43.684;10.484;2023-03-01T02:15:16;101330.69;;;8.40;100.00
26489;BME280;14169;43.684;10.484;2023-03-01T02:17:41;101318.72;;;8.32;100.00
26489;BME280;14169;43.684;10.484;2023-03-01T02:20:20;101321.38;;;8.26;100.00
26489;BME280;14169;43.684;10.484;2023-03-01T02:22:48;101318.78;;;8.24;100.00
26489;BME280;14169;43.684;10.484;2023-03-01T02:30:45;101314.28;;;8.40;100.00
26489;BME280;14169;43.684;10.484;2023-03-01T02:33:31;101310.75;;;8.42;100.00
26489;BME280;14169;43.684;10.484;2023-03-01T02:36:06;101313.31;;;8.46;100.00
26489;BME280;14169;43.684;10.484;2023-03-01T02:38:32;101298.56;;;8.49;100.00
26489;BME280;14169;43.684;10.484;2023-03-01T02:40:58;101295.06;;;8.52;100.00
26489;BME280;14169;43.684;10.484;2023-03-01T02:43:29;101285.53;;;8.52;100.00
26489;BME280;14169;43.684;10.484;2023-03-01T02:45:58;101274.28;;;8.52;100.00
26489;BME280;14169;43.684;10.484;2023-03-01T02:48:24;101271.63;;;8.55;100.00
26489;BME280;14169;43.684;10.484;2023-03-01T02:51:09;101264.72;;;8.55;100.00
26489;BME280;14169;43.684;10.484;2023-03-01T02:53:49;101258.66;;;8.55;100.00
26489;BME280;14169;43.684;10.484;2023-03-01T02:56:20;101246.50;;;8.57;100.00
26489;BME280;14169;43.684;10.484;2023-03-01T02:58:46;101248.19;;;8.59;100.00
26489;BME280;14169;43.684;10.484;2023-03-01T03:01:17;101247.34;;;8.59;100.00
26489;BME280;14169;43.684;10.484;2023-03-01T03:03:43;101251.66;;;8.58;100.00
26489;BME280;14169;43.684;10.484;2023-03-01T03:06:09;101262.03;;;8.61;100.00
26489;BME280;14169;43.684;10.484;2023-03-01T03:08:35;101258.56;;;8.61;100.00
26489;BME280;14169;43.684;10.484;2023-03-01T03:11:00;101250.72;;;8.64;100.00
26489;BME280;14169;43.684;10.484;2023-03-01T03:13:26;101248.97;;;8.64;100.00
26489;BME280;14169;43.684;10.484;2023-03-01T03:15:54;101252.63;;;8.53;100.00
26489;BME280;14169;43.684;10.484;2023-03-01T03:18:19;101233.75;;;8.42;100.00
26489;BME280;14169;43.684;10.484;2023-03-01T03:20:45;101228.50;;;8.45;100.00
26489;BME280;14169;43.684;10.484;2023-03-01T03:23:11;101221.69;;;8.39;100.00
26489;BME280;14169;43.684;10.484;2023-03-01T03:25:37;101231.38;;;8.28;100.00
26489;BME280;14169;43.684;10.484;2023-03-01T03:28:04;101240.16;;;8.19;100.00
26489;BME280;14169;43.684;10.484;2023-03-01T03:30:36;101247.13;;;8.14;100.00
26489;BME280;14169;43.684;10.484;2023-03-01T03:33:05;101249.72;;;8.14;100.00
26489;BME280;14169;43.684;10.484;2023-03-01T03:35:33;101253.13;;;8.19;100.00
26489;BME280;14169;43.684;10.484;2023-03-01T03:38:01;101257.41;;;8.23;100.00
26489;BME280;14169;43.684;10.484;2023-03-01T03:40:40;101246.13;;;8.24;100.00
26489;BME280;14169;43.684;10.484;2023-03-01T03:43:12;101249.56;;;8.25;100.00
26489;BME280;14169;43.684;10.484;2023-03-01T03:45:37;101243.53;;;8.26;100.00
26489;BME280;14169;43.684;10.484;2023-03-01T03:48:05;101247.81;;;8.27;100.00
26489;BME280;14169;43.684;10.484;2023-03-01T03:50:32;101246.16;;;8.23;100.00
26489;BME280;14169;43.684;10.484;2023-03-01T03:52:59;101256.56;;;8.18;100.00
26489;BME280;14169;43.684;10.484;2023-03-01T03:55:25;101252.41;;;8.08;100.00
26489;BME280;14169;43.684;10.484;2023-03-01T03:57:57;101250.78;;;7.98;100.00
26489;BME280;14169;43.684;10.484;2023-03-01T04:00:23;101255.28;;;7.87;100.00
26489;BME280;14169;43.684;10.484;2023-03-01T04:02:50;101248.41;;;7.83;100.00
26489;BME280;14169;43.684;10.484;2023-03-01T04:05:17;101262.22;;;7.85;100.00
26489;BME280;14169;43.684;10.484;2023-03-01T04:07:43;101269.19;;;7.82;100.00
26489;BME280;14169;43.684;10.484;2023-03-01T04:10:11;101264.94;;;7.76;100.00
26489;BME280;14169;43.684;10.484;2023-03-01T04:12:37;101263.22;;;7.75;100.00
26489;BME280;14169;43.684;10.484;2023-03-01T04:15:05;101255.50;;;7.69;100.00
26489;BME280;14169;43.684;10.484;2023-03-01T04:17:45;101251.28;;;7.62;100.00
26489;BME280;14169;43.684;10.484;2023-03-01T04:20:15;101259.06;;;7.59;100.00
26489;BME280;14169;43.684;10.484;2023-03-01T04:22:51;101246.16;;;7.54;100.00
26489;BME280;14169;43.684;10.484;2023-03-01T04:25:17;101247.91;;;7.52;100.00
26489;BME280;14169;43.684;10.484;2023-03-01T04:27:43;101255.72;;;7.51;100.00
26489;BME280;14169;43.684;10.484;2023-03-01T04:30:10;101252.25;;;7.52;100.00
26489;BME280;14169;43.684;10.484;2023-03-01T04:32:36;101246.25;;;7.47;100.00
26489;BME280;14169;43.684;10.484;2023-03-01T04:35:01;101239.34;;;7.47;100.00
26489;BME280;14169;43.684;10.484;2023-03-01T04:37:27;101246.22;;;7.50;100.00
26489;BME280;14169;43.684;10.484;2023-03-01T04:39:52;101242.75;;;7.51;100.00
26489;BME280;14169;43.684;10.484;2023-03-01T04:42:18;101239.28;;;7.50;100.00
26489;BME280;14169;43.684;10.484;2023-03-01T04:44:45;101236.72;;;7.49;100.00
26489;BME280;14169;43.684;10.484;2023-03-01T04:47:11;101234.13;;;7.52;100.00
26489;BME280;14169;43.684;10.484;2023-03-01T04:49:36;101238.44;;;7.51;100.00
26489;BME280;14169;43.684;10.484;2023-03-01T04:52:02;101231.53;;;7.52;100.00
26489;BME280;14169;43.684;10.484;2023-03-01T04:54:32;101227.19;;;7.51;100.00
26489;BME280;14169;43.684;10.484;2023-03-01T04:56:58;101222.00;;;7.51;100.00
26489;BME280;14169;43.684;10.484;2023-03-01T04:59:24;101222.00;;;7.54;100.00
26489;BME280;14169;43.684;10.484;2023-03-01T05:01:50;101240.97;;;7.56;100.00
26489;BME280;14169;43.684;10.484;2023-03-01T05:04:16;101246.94;;;7.64;100.00
26489;BME280;14169;43.684;10.484;2023-03-01T05:06:41;101244.28;;;7.67;100.00
26489;BME280;14169;43.684;10.484;2023-03-01T05:09:07;101239.91;;;7.71;100.00
26489;BME280;14169;43.684;10.484;2023-03-01T05:11:33;101228.63;;;7.75;100.00
26489;BME280;14169;43.684;10.484;2023-03-01T05:14:05;101245.88;;;7.80;100.00
26489;BME280;14169;43.684;10.484;2023-03-01T05:16:31;101238.00;;;7.85;100.00
26489;BME280;14169;43.684;10.484;2023-03-01T05:18:57;101238.84;;;7.87;100.00
26489;BME280;14169;43.684;10.484;2023-03-01T05:21:23;101236.22;;;7.91;100.00
26489;BME280;14169;43.684;10.484;2023-03-01T05:23:49;101242.22;;;7.95;100.00
26489;BME280;14169;43.684;10.484;2023-03-01T05:26:15;101227.53;;;7.94;100.00
26489;BME280;14169;43.684;10.484;2023-03-01T05:28:43;101231.81;;;7.96;100.00
26489;BME280;14169;43.684;10.484;2023-03-01T05:31:08;101229.22;;;7.98;100.00
26489;BME280;14169;43.684;10.484;2023-03-01T05:33:38;101229.09;;;8.05;100.00
26489;BME280;14169;43.684;10.484;2023-03-01T05:36:05;101223.00;;;8.09;100.00
26489;BME280;14169;43.684;10.484;2023-03-01T05:38:31;101219.50;;;8.12;100.00
26489;BME280;14169;43.684;10.484;2023-03-01T05:40:56;101223.75;;;8.14;100.00
26489;BME280;14169;43.684;10.484;2023-03-01T05:43:22;101226.38;;;8.14;100.00
26489;BME280;14169;43.684;10.484;2023-03-01T05:45:47;101230.69;;;8.15;100.00
26489;BME280;14169;43.684;10.484;2023-03-01T05:48:13;101233.31;;;8.12;100.00
26489;BME280;14169;43.684;10.484;2023-03-01T05:50:44;101224.66;;;8.13;100.00
26489;BME280;14169;43.684;10.484;2023-03-01T05:53:12;101236.75;;;8.14;100.00
26489;BME280;14169;43.684;10.484;2023-03-01T05:55:38;101236.81;;;8.11;100.00
26489;BME280;14169;43.684;10.484;2023-03-01T05:58:07;101247.16;;;8.13;100.00
26489;BME280;14169;43.684;10.484;2023-03-01T06:00:34;101246.25;;;8.15;100.00
26489;BME280;14169;43.684;10.484;2023-03-01T06:03:00;101256.63;;;8.17;100.00
26489;BME280;14169;43.684;10.484;2023-03-01T06:05:26;101254.06;;;8.12;100.00
26489;BME280;14169;43.684;10.484;2023-03-01T06:07:53;101255.03;;;8.07;100.00
26489;BME280;14169;43.684;10.484;2023-03-01T06:10:20;101263.75;;;8.01;100.00
26489;BME280;14169;43.684;10.484;2023-03-01T06:12:46;101262.94;;;7.96;100.00
26489;BME280;14169;43.684;10.484;2023-03-01T06:15:13;101272.47;;;7.96;100.00
26489;BME280;14169;43.684;10.484;2023-03-01T06:17:41;101272.47;;;7.94;100.00
26489;BME280;14169;43.684;10.484;2023-03-01T06:20:09;101288.97;;;7.89;100.00
26489;BME280;14169;43.684;10.484;2023-03-01T06:22:35;101292.47;;;7.85;100.00
26489;BME280;14169;43.684;10.484;2023-03-01T06:25:00;101300.34;;;7.77;100.00
26489;BME280;14169;43.684;10.484;2023-03-01T06:27:26;101303.03;;;7.71;100.00
26489;BME280;14169;43.684;10.484;2023-03-01T06:29:52;101310.88;;;7.65;100.00
26489;BME280;14169;43.684;10.484;2023-03-01T06:32:18;101316.97;;;7.61;100.00
26489;BME280;14169;43.684;10.484;2023-03-01T06:34:43;101318.75;;;7.56;100.00
26489;BME280;14169;43.684;10.484;2023-03-01T06:37:09;101323.13;;;7.49;100.00
26489;BME280;14169;43.684;10.484;2023-03-01T06:39:34;101326.59;;;7.47;100.00
26489;BME280;14169;43.684;10.484;2023-03-01T06:42:00;101319.72;;;7.46;100.00
26489;BME280;14169;43.684;10.484;2023-03-01T06:44:26;101325.75;;;7.45;100.00
26489;BME280;14169;43.684;10.484;2023-03-01T06:46:51;101343.06;;;7.46;100.00
26489;BME280;14169;43.684;10.484;2023-03-01T06:49:17;101346.50;;;7.45;100.00
26489;BME280;14169;43.684;10.484;2023-03-01T06:51:43;101350.81;;;7.46;100.00
26489;BME280;14169;43.684;10.484;2023-03-01T06:54:09;101347.38;;;7.45;100.00
26489;BME280;14169;43.684;10.484;2023-03-01T06:56:34;101346.53;;;7.43;100.00
26489;BME280;14169;43.684;10.484;2023-03-01T06:59:00;101359.47;;;7.43;100.00
26489;BME280;14169;43.684;10.484;2023-03-01T07:01:26;101357.78;;;7.41;100.00
26489;BME280;14169;43.684;10.484;2023-03-01T07:03:52;101362.09;;;7.39;100.00
26489;BME280;14169;43.684;10.484;2023-03-01T07:06:21;101369.91;;;7.37;100.00
26489;BME280;14169;43.684;10.484;2023-03-01T07:08:46;101381.16;;;7.35;100.00
26489;BME280;14169;43.684;10.484;2023-03-01T07:11:12;101384.63;;;7.32;100.00
26489;BME280;14169;43.684;10.484;2023-03-01T07:13:38;101382.94;;;7.30;100.00
26489;BME280;14169;43.684;10.484;2023-03-01T07:16:03;101386.41;;;7.27;100.00
26489;BME280;14169;43.684;10.484;2023-03-01T07:18:29;101400.22;;;7.29;100.00
26489;BME280;14169;43.684;10.484;2023-03-01T07:20:54;101407.13;;;7.29;100.00
26489;BME280;14169;43.684;10.484;2023-03-01T07:23:20;101407.97;;;7.31;100.00
26489;BME280;14169;43.684;10.484;2023-03-01T07:25:51;101408.78;;;7.34;100.00
26489;BME280;14169;43.684;10.484;2023-03-01T07:28:17;101420.91;;;7.34;100.00
26489;BME280;14169;43.684;10.484;2023-03-01T07:30:42;101420.97;;;7.28;100.00
26489;BME280;14169;43.684;10.484;2023-03-01T07:33:08;101420.13;;;7.21;100.00
26489;BME280;14169;43.684;10.484;2023-03-01T07:35:33;101424.47;;;7.13;100.00
26489;BME280;14169;43.684;10.484;2023-03-01T07:37:58;101438.34;;;7.08;100.00
26489;BME280;14169;43.684;10.484;2023-03-01T07:40:24;101441.78;;;7.07;100.00
26489;BME280;14169;43.684;10.484;2023-03-01T07:42:55;101424.59;;;6.95;100.00
26489;BME280;14169;43.684;10.484;2023-03-01T07:45:20;101432.38;;;6.91;100.00
26489;BME280;14169;43.684;10.484;2023-03-01T07:47:46;101441.06;;;6.85;100.00
26489;BME280;14169;43.684;10.484;2023-03-01T07:50:11;101446.25;;;6.81;100.00
26489;BME280;14169;43.684;10.484;2023-03-01T07:52:38;101435.91;;;6.75;100.00
26489;BME280;14169;43.684;10.484;2023-03-01T07:55:04;101428.19;;;6.68;100.00
26489;BME280;14169;43.684;10.484;2023-03-01T07:57:29;101434.25;;;6.63;100.00
26489;BME280;14169;43.684;10.484;2023-03-01T07:59:55;101431.69;;;6.61;100.00
26489;BME280;14169;43.684;10.484;2023-03-01T08:02:20;101432.56;;;6.57;100.00
26489;BME280;14169;43.684;10.484;2023-03-01T08:04:46;101440.38;;;6.50;100.00
26489;BME280;14169;43.684;10.484;2023-03-01T08:07:11;101438.66;;;6.47;100.00
26489;BME280;14169;43.684;10.484;2023-03-01T08:09:37;101442.94;;;6.47;100.00
26489;BME280;14169;43.684;10.484;2023-03-01T08:12:04;101442.13;;;6.43;100.00
26489;BME280;14169;43.684;10.484;2023-03-01T08:14:31;101452.47;;;6.43;100.00
26489;BME280;14169;43.684;10.484;2023-03-01T08:16:56;101442.97;;;6.45;100.00
26489;BME280;14169;43.684;10.484;2023-03-01T08:19:22;101445.56;;;6.44;100.00
26489;BME280;14169;43.684;10.484;2023-03-01T08:21:48;101444.72;;;6.42;100.00
26489;BME280;14169;43.684;10.484;2023-03-01T08:24:14;101447.28;;;6.45;100.00
26489;BME280;14169;43.684;10.484;2023-03-01T08:26:40;101451.59;;;6.47;100.00
26489;BME280;14169;43.684;10.484;2023-03-01T08:29:05;101453.31;;;6.48;100.00
26489;BME280;14169;43.684;10.484;2023-03-01T08:31:34;101446.41;;;6.47;100.00
26489;BME280;14169;43.684;10.484;2023-03-01T08:34:09;101447.25;;;6.49;100.00
26489;BME280;14169;43.684;10.484;2023-03-01T08:36:37;101450.75;;;6.48;100.00
26489;BME280;14169;43.684;10.484;2023-03-01T08:39:04;101441.25;;;6.50;100.00
26489;BME280;14169;43.684;10.484;2023-03-01T08:41:30;101447.28;;;6.48;100.00
26489;BME280;14169;43.684;10.484;2023-03-01T08:43:56;101441.22;;;6.52;100.00
26489;BME280;14169;43.684;10.484;2023-03-01T08:46:28;101449.00;;;6.50;100.00
26489;BME280;14169;43.684;10.484;2023-03-01T08:48:54;101459.34;;;6.49;100.00
26489;BME280;14169;43.684;10.484;2023-03-01T08:51:20;101462.78;;;6.49;100.00
26489;BME280;14169;43.684;10.484;2023-03-01T08:53:47;101459.34;;;6.52;100.00
26489;BME280;14169;43.684;10.484;2023-03-01T08:56:13;101461.94;;;6.52;100.00
26489;BME280;14169;43.684;10.484;2023-03-01T08:58:39;101454.16;;;6.53;100.00
26489;BME280;14169;43.684;10.484;2023-03-01T09:01:12;101447.22;;;6.57;100.00
26489;BME280;14169;43.684;10.484;2023-03-01T09:03:38;101450.69;;;6.60;100.00
26489;BME280;14169;43.684;10.484;2023-03-01T09:06:05;101450.66;;;6.62;100.00
26489;BME280;14169;43.684;10.484;2023-03-01T09:08:38;101450.66;;;6.65;100.00
26489;BME280;14169;43.684;10.484;2023-03-01T09:11:05;101445.50;;;6.60;100.00
26489;BME280;14169;43.684;10.484;2023-03-01T09:13:31;101438.56;;;6.65;100.00
26489;BME280;14169;43.684;10.484;2023-03-01T09:16:01;101438.53;;;6.73;100.00
26489;BME280;14169;43.684;10.484;2023-03-01T09:18:28;101449.72;;;6.77;100.00
26489;BME280;14169;43.684;10.484;2023-03-01T09:21:01;101445.38;;;6.85;100.00
26489;BME280;14169;43.684;10.484;2023-03-01T09:23:26;101440.16;;;6.89;100.00
26489;BME280;14169;43.684;10.484;2023-03-01T09:25:52;101437.56;;;6.91;100.00
26489;BME280;14169;43.684;10.484;2023-03-01T09:28:20;101439.28;;;6.92;100.00
26489;BME280;14169;43.684;10.484;2023-03-01T09:30:48;101429.78;;;6.98;100.00
26489;BME280;14169;43.684;10.484;2023-03-01T09:33:13;101436.63;;;7.01;100.00
26489;BME280;14169;43.684;10.484;2023-03-01T09:35:40;101434.06;;;7.02;100.00
26489;BME280;14169;43.684;10.484;2023-03-01T09:38:11;101432.31;;;7.06;100.00
26489;BME280;14169;43.684;10.484;2023-03-01T09:40:42;101418.47;;;7.08;100.00
26489;BME280;14169;43.684;10.484;2023-03-01T09:43:35;101421.91;;;7.15;100.00
26489;BME280;14169;43.684;10.484;2023-03-01T09:46:09;101420.13;;;7.23;100.00
26489;BME280;14169;43.684;10.484;2023-03-01T09:48:44;101422.63;;;7.33;100.00
26489;BME280;14169;43.684;10.484;2023-03-01T09:51:31;101424.25;;;7.45;100.00
26489;BME280;14169;43.684;10.484;2023-03-01T09:53:57;101427.69;;;7.47;100.00
26489;BME280;14169;43.684;10.484;2023-03-01T09:56:46;101431.06;;;7.57;100.00
26489;BME280;14169;43.684;10.484;2023-03-01T10:09:39;101426.72;;;7.62;100.00
26489;BME280;14169;43.684;10.484;2023-03-01T10:12:10;101428.41;;;7.63;100.00
26489;BME280;14169;43.684;10.484;2023-03-01T10:15:15;101431.09;;;7.58;100.00
26489;BME280;14169;43.684;10.484;2023-03-01T10:20:24;101423.25;;;7.61;100.00
26489;BME280;14169;43.684;10.484;2023-03-01T10:22:51;101417.22;;;7.62;100.00
26489;BME280;14169;43.684;10.484;2023-03-01T10:28:20;101421.66;;;7.48;100.00
26489;BME280;14169;43.684;10.484;2023-03-01T10:30:50;101431.19;;;7.46;100.00
26489;BME280;14169;43.684;10.484;2023-03-01T10:33:23;101428.63;;;7.40;100.00
26489;BME280;14169;43.684;10.484;2023-03-01T10:35:50;101421.69;;;7.40;100.00
26489;BME280;14169;43.684;10.484;2023-03-01T10:38:17;101426.91;;;7.37;100.00
26489;BME280;14169;43.684;10.484;2023-03-01T10:43:17;101420.97;;;7.25;100.00
26489;BME280;14169;43.684;10.484;2023-03-01T10:45:43;101431.34;;;7.23;100.00
26489;BME280;14169;43.684;10.484;2023-03-01T10:48:11;101440.00;;;7.22;100.00
26489;BME280;14169;43.684;10.484;2023-03-01T10:50:39;101442.59;;;7.22;100.00
26489;BME280;14169;43.684;10.484;2023-03-01T10:53:20;101437.44;;;7.15;100.00
26489;BME280;14169;43.684;10.484;2023-03-01T10:55:46;101441.75;;;7.13;100.00
26489;BME280;14169;43.684;10.484;2023-03-01T10:58:16;101444.34;;;7.11;100.00
26489;BME280;14169;43.684;10.484;2023-03-01T11:00:47;101440.03;;;7.09;100.00
26489;BME280;14169;43.684;10.484;2023-03-01T11:03:18;101447.84;;;7.07;100.00
26489;BME280;14169;43.684;10.484;2023-03-01T11:06:12;101449.56;;;7.05;100.00
26489;BME280;14169;43.684;10.484;2023-03-01T11:08:47;101453.91;;;7.02;100.00
26489;BME280;14169;43.684;10.484;2023-03-01T11:11:29;101451.34;;;6.96;100.00
26489;BME280;14169;43.684;10.484;2023-03-01T11:14:06;101449.66;;;6.92;100.00
26489;BME280;14169;43.684;10.484;2023-03-01T11:16:37;101454.84;;;6.87;100.00
26489;BME280;14169;43.684;10.484;2023-03-01T11:21:38;101456.59;;;6.84;100.00
26489;BME280;14169;43.684;10.484;2023-03-01T11:24:09;101454.88;;;6.84;100.00
26489;BME280;14169;43.684;10.484;2023-03-01T11:26:38;101457.44;;;6.89;100.00
26489;BME280;14169;43.684;10.484;2023-03-01T11:29:59;101456.59;;;6.81;100.00
26489;BME280;14169;43.684;10.484;2023-03-01T11:32:00;101458.31;;;6.85;100.00
26489;BME280;14169;43.684;10.484;2023-03-01T11:34:38;101468.72;;;6.76;100.00
26489;BME280;14169;43.684;10.484;2023-03-01T11:37:13;101460.13;;;6.67;100.00
26489;BME280;14169;43.684;10.484;2023-03-01T11:39:45;101462.72;;;6.72;100.00
26489;BME280;14169;43.684;10.484;2023-03-01T11:42:20;101459.28;;;6.64;100.00
26489;BME280;14169;43.684;10.484;2023-03-01T11:44:53;101461.03;;;6.57;100.00
26489;BME280;14169;43.684;10.484;2023-03-01T11:50:35;101464.50;;;6.56;100.00
26489;BME280;14169;43.684;10.484;2023-03-01T12:10:15;101441.19;;;6.55;100.00
26489;BME280;14169;43.684;10.484;2023-03-01T12:15:55;101429.97;;;6.57;100.00
26489;BME280;14169;43.684;10.484;2023-03-01T12:24:31;101427.41;;;6.53;100.00
26489;BME280;14169;43.684;10.484;2023-03-01T12:30:17;101414.53;;;6.42;100.00
26489;BME280;14169;43.684;10.484;2023-03-01T12:51:28;101375.75;;;6.27;100.00
26489;BME280;14169;43.684;10.484;2023-03-01T12:53:55;101378.34;;;6.27;100.00
26489;BME280;14169;43.684;10.484;2023-03-01T12:56:29;101380.94;;;6.26;100.00
26489;BME280;14169;43.684;10.484;2023-03-01T13:09:54;101373.19;;;6.26;100.00
26489;BME280;14169;43.684;10.484;2023-03-01T13:28:47;101366.38;;;6.08;100.00
26489;BME280;14169;43.684;10.484;2023-03-01T13:33:50;101357.75;;;6.08;100.00
26489;BME280;14169;43.684;10.484;2023-03-01T13:44:28;101362.88;;;6.15;100.00
26489;BME280;14169;43.684;10.484;2023-03-01T13:49:32;101355.13;;;6.18;100.00
26489;BME280;14169;43.684;10.484;2023-03-01T13:52:01;101349.94;;;6.17;100.00
26489;BME280;14169;43.684;10.484;2023-03-01T13:54:31;101349.09;;;6.13;100.00
26489;BME280;14169;43.684;10.484;2023-03-01T13:56:59;101352.56;;;6.09;100.00
26489;BME280;14169;43.684;10.484;2023-03-01T13:59:25;101346.50;;;6.13;100.00
26489;BME280;14169;43.684;10.484;2023-03-01T14:01:53;101342.19;;;6.15;100.00
26489;BME280;14169;43.684;10.484;2023-03-01T14:04:32;101346.50;;;6.18;100.00
26489;BME280;14169;43.684;10.484;2023-03-01T14:07:18;101343.88;;;6.21;100.00
26489;BME280;14169;43.684;10.484;2023-03-01T14:09:45;101345.59;;;6.26;100.00
26489;BME280;14169;43.684;10.484;2023-03-01T14:20:16;101327.44;;;6.34;100.00
26489;BME280;14169;43.684;10.484;2023-03-01T14:22:42;101338.63;;;6.42;100.00
26489;BME280;14169;43.684;10.484;2023-03-01T14:25:24;101332.56;;;6.44;100.00
26489;BME280;14169;43.684;10.484;2023-03-01T14:27:56;101325.63;;;6.51;100.00
26489;BME280;14169;43.684;10.484;2023-03-01T14:30:49;101322.13;;;6.55;100.00
26489;BME280;14169;43.684;10.484;2023-03-01T14:35:52;101321.16;;;6.72;100.00
26489;BME280;14169;43.684;10.484;2023-03-01T14:41:03;101311.47;;;7.00;100.00
26489;BME280;14169;43.684;10.484;2023-03-01T14:43:29;101305.31;;;7.18;100.00
26489;BME280;14169;43.684;10.484;2023-03-01T14:45:56;101297.41;;;7.30;100.00
26489;BME280;14169;43.684;10.484;2023-03-01T14:48:22;101292.06;;;7.45;100.00
26489;BME280;14169;43.684;10.484;2023-03-01T14:50:49;101282.41;;;7.59;100.00
26489;BME280;14169;43.684;10.484;2023-03-01T14:53:27;101290.81;;;7.79;100.00
26489;BME280;14169;43.684;10.484;2023-03-01T14:56:00;101286.50;;;7.80;100.00
26489;BME280;14169;43.684;10.484;2023-03-01T14:58:29;101278.75;;;7.77;100.00
26489;BME280;14169;43.684;10.484;2023-03-01T15:01:02;101271.03;;;7.72;100.00
26489;BME280;14169;43.684;10.484;2023-03-01T15:03:34;101271.75;;;7.83;100.00
26489;BME280;14169;43.684;10.484;2023-03-01T15:06:03;101276.72;;;8.01;100.00
26489;BME280;14169;43.684;10.484;2023-03-01T15:08:31;101265.72;;;7.84;100.00